Time;durP1;ratioP1;P1;durP2;ratioP2;P2;SDS_P1;SDS_P2;PMS_P1;PMS_P2;Temp;Humidity;BMP_temperature;BMP_pressure;BME280_temperature;BME280_humidity;BME280_pressure;Samples;Min_cycle;Max_cycle;Signal;HPM_P1;HPM_P2
2022/03/20 00:00:06;;;;;;;;;;;5.50;53.10;;;;;;5036225;28;20009;-71
2022/03/20 00:02:33;;;;;;;;;;;5.50;53.20;;;;;;5042821;28;19936;-71
2022/03/20 00:05:02;;;;;;;;;;;5.60;53.30;;;;;;5037963;28;20280;-72
2022/03/20 00:07:33;;;;;;;;;;;5.50;53.40;;;;;;5037067;28;19925;-72
2022/03/20 00:10:00;;;;;;;;;;;5.50;53.60;;;;;;5034615;28;20465;-72
2022/03/20 00:12:27;;;;;;;;;;;5.40;54.00;;;;;;5037576;28;20016;-72
2022/03/20 00:14:53;;;;;;;;;;;5.40;54.30;;;;;;5040038;28;20018;-72
2022/03/20 00:17:21;;;;;;;;;;;5.50;54.20;;;;;;5033610;28;19932;-72
2022/03/20 00:19:48;;;;;;;;;;;5.40;54.50;;;;;;5036266;28;19968;-72
2022/03/20 00:22:16;;;;;;;;;;;5.50;54.60;;;;;;5032923;28;19925;-72
2022/03/20 00:24:44;;;;;;;;;;;5.40;54.50;;;;;;5029776;28;19929;-72
2022/03/20 00:27:12;;;;;;;;;;;5.40;54.70;;;;;;5031608;28;20463;-72
2022/03/20 00:29:38;;;;;;;;;;;5.50;54.80;;;;;;5046198;28;20012;-72
2022/03/20 00:32:06;;;;;;;;;;;5.40;54.70;;;;;;5041047;28;19925;-72
2022/03/20 00:34:33;;;;;;;;;;;5.40;54.90;;;;;;5039989;28;19932;-72
2022/03/20 00:36:59;;;;;;;;;;;5.40;55.20;;;;;;5036452;28;19925;-72
2022/03/20 00:39:27;;;;;;;;;;;5.30;55.30;;;;;;5050007;28;19925;-73
2022/03/20 00:41:57;;;;;;;;;;;5.30;55.50;;;;;;5047797;28;19931;-72
2022/03/20 00:44:23;;;;;;;;;;;5.20;56.00;;;;;;5045307;28;19925;-73
2022/03/20 00:46:50;;;;;;;;;;;5.10;56.20;;;;;;5034544;28;20431;-73
2022/03/20 00:49:17;;;;;;;;;;;5.10;56.60;;;;;;5035624;28;19999;-73
2022/03/20 00:51:44;;;;;;;;;;;5.00;56.90;;;;;;5051322;28;19925;-73
2022/03/20 00:54:11;;;;;;;;;;;5.00;57.20;;;;;;5035290;28;19931;-72
2022/03/20 00:56:39;;;;;;;;;;;4.90;57.80;;;;;;5039495;28;19975;-73
2022/03/20 00:59:06;;;;;;;;;;;4.90;58.30;;;;;;5048839;28;19925;-72
2022/03/20 01:01:33;;;;;;;;;;;4.80;58.40;;;;;;5040423;28;19948;-73
2022/03/20 01:03:59;;;;;;;;;;;4.80;58.70;;;;;;5035271;28;19925;-72
2022/03/20 01:06:26;;;;;;;;;;;4.80;58.90;;;;;;5046085;28;19925;-73
2022/03/20 01:08:53;;;;;;;;;;;4.70;59.20;;;;;;5033800;28;19936;-72
2022/03/20 01:11:20;;;;;;;;;;;4.60;59.60;;;;;;5044293;28;19925;-72
2022/03/20 01:13:48;;;;;;;;;;;4.60;59.90;;;;;;5032913;28;19925;-72
2022/03/20 01:16:14;;;;;;;;;;;4.50;60.60;;;;;;5045741;28;20334;-73
2022/03/20 01:18:41;;;;;;;;;;;4.40;61.20;;;;;;5038299;28;20380;-71
2022/03/20 01:21:08;;;;;;;;;;;4.40;61.80;;;;;;5033338;28;20471;-71
2022/03/20 01:23:34;;;;;;;;;;;4.50;61.90;;;;;;5037532;28;19925;-71
2022/03/20 01:26:01;;;;;;;;;;;4.50;62.20;;;;;;5041717;28;19964;-71
2022/03/20 01:28:28;;;;;;;;;;;4.60;61.70;;;;;;5036459;28;19925;-71
2022/03/20 01:30:56;;;;;;;;;;;4.50;62.20;;;;;;5043588;28;19951;-73
2022/03/20 01:33:23;;;;;;;;;;;4.50;62.10;;;;;;5039290;28;20304;-73
2022/03/20 01:35:50;;;;;;;;;;;4.60;62.10;;;;;;5033535;28;20012;-73
2022/03/20 01:38:20;;;;;;;;;;;4.70;62.20;;;;;;5038356;28;20016;-73
2022/03/20 01:40:46;;;;;;;;;;;4.60;62.40;;;;;;5034948;28;20242;-72
2022/03/20 01:43:13;;;;;;;;;;;4.60;62.80;;;;;;5039549;28;20028;-72
2022/03/20 01:45:40;;;;;;;;;;;4.50;63.50;;;;;;5034971;28;20035;-72
2022/03/20 01:48:08;;;;;;;;;;;4.50;64.00;;;;;;5043840;28;19932;-72
2022/03/20 01:50:35;;;;;;;;;;;4.40;65.20;;;;;;5038076;28;19929;-72
2022/03/20 01:53:01;;;;;;;;;;;4.30;64.90;;;;;;5038705;28;19925;-72
2022/03/20 01:55:28;;;;;;;;;;;4.30;65.40;;;;;;5046316;28;19931;-72
2022/03/20 01:57:56;;;;;;;;;;;4.30;66.20;;;;;;5038929;28;19972;-73
2022/03/20 02:00:24;;;;;;;;;;;4.30;65.80;;;;;;5039792;28;19932;-72
2022/03/20 02:02:51;;;;;;;;;;;4.20;66.00;;;;;;5042463;28;20002;-72
2022/03/20 02:05:21;;;;;;;;;;;4.20;66.20;;;;;;5032609;28;20362;-72
2022/03/20 02:07:48;;;;;;;;;;;4.30;66.80;;;;;;5041077;28;19929;-72
2022/03/20 02:10:15;;;;;;;;;;;4.20;66.90;;;;;;5041287;28;19929;-72
2022/03/20 02:12:42;;;;;;;;;;;4.20;67.20;;;;;;5046866;28;20011;-72
2022/03/20 02:15:10;;;;;;;;;;;4.20;67.00;;;;;;5032780;28;19929;-72
2022/03/20 02:17:38;;;;;;;;;;;4.30;66.80;;;;;;5043796;28;19968;-72
2022/03/20 02:20:08;;;;;;;;;;;4.20;67.10;;;;;;5038760;28;20298;-72
2022/03/20 02:22:38;;;;;;;;;;;4.20;67.30;;;;;;5042241;28;19928;-72
2022/03/20 02:25:06;;;;;;;;;;;4.20;67.60;;;;;;5036440;28;19995;-73
2022/03/20 02:27:34;;;;;;;;;;;4.10;68.00;;;;;;5037159;28;19925;-73
2022/03/20 02:30:01;;;;;;;;;;;4.00;68.40;;;;;;5034968;28;20388;-73
2022/03/20 02:32:28;;;;;;;;;;;4.10;68.80;;;;;;5045593;28;19925;-73
2022/03/20 02:34:56;;;;;;;;;;;4.00;69.40;;;;;;5037920;28;19985;-73
2022/03/20 02:37:23;;;;;;;;;;;4.00;69.90;;;;;;5046558;28;19939;-73
2022/03/20 02:39:52;;;;;;;;;;;3.90;70.50;;;;;;5048247;28;20695;-73
2022/03/20 02:42:18;;;;;;;;;;;3.90;70.50;;;;;;5042220;28;19931;-73
2022/03/20 02:44:49;;;;;;;;;;;3.90;70.50;;;;;;5032234;28;20282;-73
2022/03/20 02:47:20;;;;;;;;;;;3.90;71.20;;;;;;5040111;28;20299;-73
2022/03/20 02:49:48;;;;;;;;;;;3.90;71.50;;;;;;5046075;28;20113;-74
2022/03/20 02:52:15;;;;;;;;;;;3.90;72.20;;;;;;5039464;28;19925;-73
2022/03/20 02:54:42;;;;;;;;;;;4.00;72.80;;;;;;5041494;28;20430;-72
2022/03/20 02:57:10;;;;;;;;;;;3.90;73.10;;;;;;5035562;28;19925;-71
2022/03/20 02:59:37;;;;;;;;;;;3.90;73.20;;;;;;5033084;28;19925;-72
2022/03/20 03:02:03;;;;;;;;;;;3.90;73.30;;;;;;5043861;28;19978;-72
2022/03/20 03:04:30;;;;;;;;;;;3.90;73.50;;;;;;5045568;28;19971;-76
2022/03/20 03:07:01;;;;;;;;;;;3.80;73.80;;;;;;5039071;28;20016;-71
2022/03/20 03:12:14;;;;;;;;;;;3.90;74.50;;;;;;5042346;28;19947;-71
2022/03/20 03:17:28;;;;;;;;;;;3.90;75.20;;;;;;5033317;28;19944;-70
2022/03/20 03:19:55;;;;;;;;;;;3.90;75.10;;;;;;5031480;28;19929;-72
2022/03/20 03:22:22;;;;;;;;;;;4.00;74.70;;;;;;5044314;28;19924;-73
2022/03/20 03:24:48;;;;;;;;;;;4.00;75.20;;;;;;5046302;28;20015;-72
2022/03/20 03:27:16;;;;;;;;;;;4.00;75.80;;;;;;5036940;28;20265;-72
2022/03/20 03:29:43;;;;;;;;;;;3.90;76.10;;;;;;5033374;28;20299;-72
2022/03/20 03:32:10;;;;;;;;;;;3.90;76.60;;;;;;5036357;28;20015;-72
2022/03/20 03:37:22;;;;;;;;;;;3.80;78.50;;;;;;5041972;28;19980;-72
2022/03/20 03:39:49;;;;;;;;;;;3.80;78.10;;;;;;5033140;28;19933;-72
2022/03/20 03:42:17;;;;;;;;;;;3.90;78.50;;;;;;5039490;28;19929;-72
2022/03/20 03:44:44;;;;;;;;;;;3.90;78.70;;;;;;5033708;28;20296;-71
2022/03/20 03:47:10;;;;;;;;;;;3.80;79.00;;;;;;5031630;28;20308;-72
2022/03/20 03:49:37;;;;;;;;;;;3.90;79.20;;;;;;5029938;28;19947;-72
2022/03/20 03:52:05;;;;;;;;;;;3.80;79.50;;;;;;5033005;28;20128;-71
2022/03/20 03:54:32;;;;;;;;;;;3.80;79.30;;;;;;5042498;28;19925;-71
2022/03/20 03:56:59;;;;;;;;;;;3.90;79.90;;;;;;5034676;28;19960;-71
2022/03/20 03:59:27;;;;;;;;;;;3.80;80.10;;;;;;5031608;28;19925;-72
2022/03/20 04:01:55;;;;;;;;;;;3.80;79.90;;;;;;5030840;28;19932;-72
2022/03/20 04:04:21;;;;;;;;;;;3.70;80.30;;;;;;5032926;28;19941;-72
2022/03/20 04:06:48;;;;;;;;;;;3.80;80.20;;;;;;5039509;28;20169;-72
2022/03/20 04:09:15;;;;;;;;;;;3.90;79.90;;;;;;5039231;28;19932;-72
2022/03/20 04:11:41;;;;;;;;;;;3.90;79.70;;;;;;5035319;28;19924;-72
2022/03/20 04:14:08;;;;;;;;;;;3.90;79.90;;;;;;5036112;28;19931;-71
2022/03/20 04:16:37;;;;;;;;;;;4.00;79.80;;;;;;5040092;28;19936;-71
2022/03/20 04:19:04;;;;;;;;;;;4.00;79.00;;;;;;5041716;28;19924;-72
2022/03/20 04:21:31;;;;;;;;;;;4.00;79.10;;;;;;5038279;28;20031;-72
2022/03/20 04:23:58;;;;;;;;;;;4.00;78.90;;;;;;5034770;28;19933;-71
2022/03/20 04:26:25;;;;;;;;;;;4.00;79.20;;;;;;5045990;28;19925;-72
2022/03/20 04:28:53;;;;;;;;;;;4.00;79.10;;;;;;5039618;28;20299;-72
2022/03/20 04:31:20;;;;;;;;;;;4.00;79.20;;;;;;5043752;28;20394;-72
2022/03/20 04:33:48;;;;;;;;;;;4.00;78.90;;;;;;5037780;28;19925;-72
2022/03/20 04:36:15;;;;;;;;;;;3.90;78.80;;;;;;5044864;28;19932;-72
2022/03/20 04:38:43;;;;;;;;;;;3.90;78.70;;;;;;5045417;28;20029;-71
2022/03/20 04:41:10;;;;;;;;;;;3.90;78.60;;;;;;5039614;28;20335;-72
2022/03/20 04:43:36;;;;;;;;;;;3.90;78.20;;;;;;5048520;28;19946;-73
2022/03/20 04:46:03;;;;;;;;;;;3.90;78.30;;;;;;5039285;28;19925;-72
2022/03/20 04:59:28;;;;;;;;;;;3.80;78.30;;;;;;5042033;28;19978;-72
2022/03/20 05:01:54;;;;;;;;;;;3.80;78.00;;;;;;5042332;28;19925;-72
2022/03/20 05:04:21;;;;;;;;;;;3.90;77.80;;;;;;5035717;28;19933;-72
2022/03/20 05:06:49;;;;;;;;;;;3.80;78.00;;;;;;5041785;28;19935;-72
2022/03/20 05:14:44;;;;;;;;;;;3.70;77.40;;;;;;5041690;28;19952;-72
2022/03/20 05:17:11;;;;;;;;;;;3.80;78.00;;;;;;5043616;28;19928;-71
2022/03/20 05:19:40;;;;;;;;;;;3.80;78.40;;;;;;5042434;28;19925;-72
2022/03/20 05:22:10;;;;;;;;;;;3.70;78.00;;;;;;5036961;28;19925;-72
2022/03/20 05:24:37;;;;;;;;;;;3.70;78.00;;;;;;5039458;28;21701;-72
2022/03/20 05:27:03;;;;;;;;;;;3.60;78.10;;;;;;5040777;28;19925;-72
2022/03/20 05:29:31;;;;;;;;;;;3.60;78.30;;;;;;5049357;28;19932;-72
2022/03/20 05:31:57;;;;;;;;;;;3.60;78.30;;;;;;5046753;28;20303;-72
2022/03/20 05:34:24;;;;;;;;;;;3.60;78.20;;;;;;5042595;28;19925;-77
2022/03/20 05:36:52;;;;;;;;;;;3.60;78.20;;;;;;5038768;28;19964;-74
2022/03/20 05:39:20;;;;;;;;;;;3.50;78.60;;;;;;5036572;28;20280;-74
2022/03/20 05:41:51;;;;;;;;;;;3.50;78.80;;;;;;5051454;28;20284;-74
2022/03/20 05:44:19;;;;;;;;;;;3.40;79.00;;;;;;5047932;28;19925;-75
2022/03/20 05:46:47;;;;;;;;;;;3.40;78.80;;;;;;5041325;28;19937;-73
2022/03/20 05:49:13;;;;;;;;;;;3.40;77.50;;;;;;5039856;28;19925;-73
2022/03/20 05:51:40;;;;;;;;;;;3.40;78.70;;;;;;5035300;28;20270;-73
2022/03/20 05:54:07;;;;;;;;;;;3.40;79.10;;;;;;5045065;28;19931;-73
2022/03/20 05:59:19;;;;;;;;;;;3.50;78.70;;;;;;5036502;28;19953;-73
2022/03/20 06:01:46;;;;;;;;;;;3.50;78.40;;;;;;5043971;28;19931;-73
2022/03/20 06:04:13;;;;;;;;;;;3.50;79.10;;;;;;5050236;28;19964;-73
2022/03/20 06:06:42;;;;;;;;;;;3.50;78.50;;;;;;5040256;28;19980;-73
2022/03/20 06:09:09;;;;;;;;;;;3.50;79.30;;;;;;5034139;28;19987;-74
2022/03/20 06:11:37;;;;;;;;;;;3.50;79.10;;;;;;5039711;28;20235;-73
2022/03/20 06:14:03;;;;;;;;;;;3.50;79.00;;;;;;5043953;28;19924;-74
2022/03/20 06:16:30;;;;;;;;;;;3.50;79.10;;;;;;5034007;28;19928;-73
2022/03/20 06:18:57;;;;;;;;;;;3.50;78.90;;;;;;5039158;28;20472;-73
2022/03/20 06:21:25;;;;;;;;;;;3.60;78.90;;;;;;5037309;28;19931;-73
2022/03/20 06:23:53;;;;;;;;;;;3.50;78.40;;;;;;5036166;28;19931;-73
2022/03/20 06:26:20;;;;;;;;;;;3.60;78.70;;;;;;5030628;28;20007;-72
2022/03/20 06:28:49;;;;;;;;;;;3.60;78.30;;;;;;5032840;28;19971;-73
2022/03/20 06:31:15;;;;;;;;;;;3.70;78.30;;;;;;5034335;28;19924;-71
2022/03/20 06:33:43;;;;;;;;;;;3.70;78.50;;;;;;5038453;28;19931;-72
2022/03/20 06:36:10;;;;;;;;;;;3.70;77.60;;;;;;5039006;28;19932;-71
2022/03/20 06:38:37;;;;;;;;;;;3.70;77.60;;;;;;5040935;28;19925;-71
2022/03/20 06:41:03;;;;;;;;;;;3.80;76.50;;;;;;5037937;28;19925;-71
2022/03/20 06:43:30;;;;;;;;;;;3.80;76.50;;;;;;5043099;28;19933;-70
2022/03/20 06:45:58;;;;;;;;;;;3.80;76.30;;;;;;5048446;28;19925;-71
2022/03/20 06:48:25;;;;;;;;;;;3.80;76.30;;;;;;5044089;28;19925;-72
2022/03/20 06:50:52;;;;;;;;;;;3.80;76.70;;;;;;5034564;28;19925;-72
2022/03/20 06:53:18;;;;;;;;;;;3.90;77.00;;;;;;5036494;28;19924;-71
2022/03/20 06:55:46;;;;;;;;;;;3.80;75.80;;;;;;5045227;28;20024;-71
2022/03/20 06:58:13;;;;;;;;;;;3.80;75.90;;;;;;5050411;28;19929;-75
2022/03/20 07:00:40;;;;;;;;;;;3.80;75.30;;;;;;5047148;28;20369;-72
2022/03/20 07:03:09;;;;;;;;;;;3.80;76.30;;;;;;5036346;28;20027;-72
2022/03/20 07:05:36;;;;;;;;;;;3.80;76.00;;;;;;5043156;28;19932;-71
2022/03/20 07:08:03;;;;;;;;;;;4.00;76.40;;;;;;5044299;28;19932;-71
2022/03/20 07:10:29;;;;;;;;;;;3.80;75.90;;;;;;5036418;28;19933;-71
2022/03/20 07:13:48;;;;;;;;;;;3.80;75.70;;;;;;5031319;28;19925;-71
2022/03/20 07:15:44;;;;;;;;;;;3.80;75.60;;;;;;5031508;28;20435;-71
2022/03/20 07:18:12;;;;;;;;;;;3.90;75.70;;;;;;5038535;28;19933;-70
2022/03/20 07:20:39;;;;;;;;;;;3.90;75.30;;;;;;5039390;28;19925;-71
2022/03/20 07:23:09;;;;;;;;;;;3.80;75.30;;;;;;5030229;28;19933;-70
2022/03/20 07:31:04;;;;;;;;;;;3.90;78.50;;;;;;5033139;28;19987;-71
2022/03/20 07:33:34;;;;;;;;;;;3.90;83.70;;;;;;5043965;28;19925;-71
2022/03/20 07:36:00;;;;;;;;;;;3.70;87.70;;;;;;5040153;28;19932;-71
2022/03/20 07:38:27;;;;;;;;;;;3.50;92.50;;;;;;5041861;28;20392;-71
2022/03/20 07:40:54;;;;;;;;;;;3.30;95.50;;;;;;5046768;28;19925;-72
2022/03/20 07:43:21;;;;;;;;;;;2.90;99.90;;;;;;5045742;28;20306;-72
2022/03/20 07:45:48;;;;;;;;;;;2.50;99.90;;;;;;5037732;28;20012;-71
2022/03/20 07:48:14;;;;;;;;;;;2.30;99.90;;;;;;5038759;28;20012;-71
2022/03/20 07:50:42;;;;;;;;;;;2.10;99.90;;;;;;5035336;28;20028;-72
2022/03/20 07:53:09;;;;;;;;;;;1.80;99.90;;;;;;5046093;28;19959;-73
2022/03/20 07:55:36;;;;;;;;;;;1.70;99.90;;;;;;5036465;28;19925;-72
2022/03/20 07:58:02;;;;;;;;;;;1.50;99.90;;;;;;5041883;28;19978;-71
2022/03/20 08:00:32;;;;;;;;;;;1.40;99.90;;;;;;5044793;28;19933;-73
2022/03/20 08:03:01;;;;;;;;;;;1.00;99.90;;;;;;5042377;28;20375;-71
2022/03/20 08:05:31;;;;;;;;;;;1.00;99.90;;;;;;5044471;28;20387;-74
2022/03/20 08:08:02;;;;;;;;;;;0.80;99.90;;;;;;5039360;28;19929;-70
2022/03/20 08:13:02;;;;;;;;;;;1.00;99.90;;;;;;5157675;22;19927;-70
2022/03/20 08:15:30;;;;;;;;;;;0.90;99.90;;;;;;5087234;28;19924;-72
2022/03/20 08:17:59;;;;;;;;;;;1.10;99.90;;;;;;5092163;28;19928;-70
2022/03/20 08:20:28;;;;;;;;;;;1.30;99.90;;;;;;5089073;28;19930;-70
2022/03/20 08:22:58;;;;;;;;;;;1.80;99.90;;;;;;5089593;28;19931;-70
2022/03/20 08:25:27;;;;;;;;;;;1.30;99.90;;;;;;5084169;28;19932;-70
2022/03/20 08:27:57;;;;;;;;;;;1.50;99.90;;;;;;5090737;28;20363;-71
2022/03/20 08:30:29;;;;;;;;;;;1.50;99.90;;;;;;5091388;28;19928;-70
2022/03/20 08:32:58;;;;;;;;;;;1.50;99.90;;;;;;5090757;28;20035;-69
2022/03/20 08:35:25;;;;;;;;;;;1.60;99.90;;;;;;5089343;28;20532;-70
2022/03/20 08:38:03;;;;;;;;;;;1.60;99.90;;;;;;5087679;28;20286;-72
2022/03/20 08:40:32;;;;;;;;;;;1.70;99.90;;;;;;5089432;28;19932;-71
2022/03/20 08:43:04;;;;;;;;;;;1.90;99.90;;;;;;5090194;28;19932;-70
2022/03/20 08:45:33;;;;;;;;;;;1.90;99.90;;;;;;5092997;28;19931;-70
2022/03/20 08:48:00;;;;;;;;;;;1.90;99.90;;;;;;5091134;28;20464;-69
2022/03/20 08:50:27;;;;;;;;;;;2.30;99.90;;;;;;5090913;28;20338;-70
2022/03/20 08:52:56;;;;;;;;;;;2.40;99.90;;;;;;5088866;28;20299;-69
2022/03/20 08:55:25;;;;;;;;;;;2.40;99.90;;;;;;5090262;28;19928;-69
2022/03/20 08:57:56;;;;;;;;;;;2.40;99.90;;;;;;5091616;28;19932;-69
2022/03/20 09:00:24;;;;;;;;;;;2.40;99.90;;;;;;5092501;28;19924;-69
2022/03/20 09:02:51;;;;;;;;;;;2.50;99.90;;;;;;5089012;28;19930;-69
2022/03/20 09:05:18;;;;;;;;;;;2.50;99.90;;;;;;5091056;28;20034;-67
2022/03/20 09:07:47;;;;;;;;;;;2.80;99.90;;;;;;5080290;28;19932;-70
2022/03/20 09:10:14;;;;;;;;;;;2.70;99.90;;;;;;5086899;28;19924;-69
2022/03/20 09:12:42;;;;;;;;;;;2.80;99.90;;;;;;5074594;28;20417;-69
2022/03/20 09:15:12;;;;;;;;;;;4.50;99.90;;;;;;5072791;28;19971;-69
2022/03/20 09:20:25;;;;;;;;;;;6.40;99.90;;;;;;5067657;28;20433;-69
2022/03/20 09:22:52;;;;;;;;;;;6.60;99.90;;;;;;5069373;28;20011;-69
2022/03/20 09:25:18;;;;;;;;;;;7.20;99.90;;;;;;5065611;28;20019;-68
2022/03/20 09:27:48;;;;;;;;;;;8.40;99.90;;;;;;5069485;28;20031;-69
2022/03/20 09:30:16;;;;;;;;;;;7.70;99.90;;;;;;5068406;28;19925;-69
2022/03/20 09:32:42;;;;;;;;;;;7.90;99.90;;;;;;5069270;28;19951;-69
2022/03/20 09:35:09;;;;;;;;;;;7.30;99.90;;;;;;5069301;28;19932;-70
2022/03/20 09:37:36;;;;;;;;;;;8.30;99.90;;;;;;5067849;28;19924;-69
2022/03/20 09:40:03;;;;;;;;;;;7.70;99.90;;;;;;5068257;28;20413;-69
2022/03/20 09:42:30;;;;;;;;;;;5.90;99.90;;;;;;5066047;28;19984;-70
2022/03/20 09:44:57;;;;;;;;;;;5.80;99.90;;;;;;5068392;28;20336;-70
2022/03/20 09:47:25;;;;;;;;;;;6.20;99.90;;;;;;5064102;28;19947;-69
2022/03/20 09:49:51;;;;;;;;;;;6.40;99.90;;;;;;5067792;28;19925;-70
2022/03/20 09:52:18;;;;;;;;;;;6.40;99.90;;;;;;5063872;28;19928;-69
2022/03/20 09:54:45;;;;;;;;;;;6.80;99.90;;;;;;5070611;28;19924;-69
2022/03/20 09:57:12;;;;;;;;;;;6.70;99.90;;;;;;5066689;28;19931;-69
2022/03/20 09:59:39;;;;;;;;;;;7.20;99.90;;;;;;5059072;28;19932;-69
2022/03/20 10:02:07;;;;;;;;;;;8.00;99.90;;;;;;5066609;28;19932;-69
2022/03/20 10:04:51;;;;;;;;;;;8.10;99.90;;;;;;5066725;28;20027;-69
2022/03/20 10:07:20;;;;;;;;;;;7.40;99.90;;;;;;5067891;28;19925;-68
2022/03/20 10:10:05;;;;;;;;;;;7.40;99.90;;;;;;5068747;28;20031;-70
2022/03/20 10:12:32;;;;;;;;;;;7.20;99.90;;;;;;5064676;28;20010;-71
2022/03/20 10:14:59;;;;;;;;;;;7.20;99.90;;;;;;5066418;28;19930;-70
2022/03/20 10:17:26;;;;;;;;;;;6.90;99.90;;;;;;5066475;28;19935;-70
2022/03/20 10:19:54;;;;;;;;;;;6.70;99.90;;;;;;5069776;28;19924;-71
2022/03/20 10:22:21;;;;;;;;;;;6.30;99.90;;;;;;5066064;28;20025;-70
2022/03/20 10:24:49;;;;;;;;;;;6.00;99.90;;;;;;5071563;28;19971;-70
2022/03/20 10:27:16;;;;;;;;;;;5.70;99.90;;;;;;5063770;28;19924;-69
2022/03/20 10:29:53;;;;;;;;;;;6.00;99.90;;;;;;5068343;28;19928;-70
2022/03/20 10:32:20;;;;;;;;;;;6.00;99.90;;;;;;5061491;28;19933;-69
2022/03/20 10:34:48;;;;;;;;;;;6.60;99.90;;;;;;5068851;22;19937;-70
2022/03/20 10:37:17;;;;;;;;;;;6.90;99.90;;;;;;5080144;28;19932;-70
2022/03/20 10:39:43;;;;;;;;;;;7.20;99.90;;;;;;5081091;28;19924;-70
2022/03/20 10:42:12;;;;;;;;;;;7.40;99.90;;;;;;5083465;28;19932;-69
2022/03/20 10:44:38;;;;;;;;;;;7.40;98.60;;;;;;5085202;28;19924;-70
2022/03/20 10:47:10;;;;;;;;;;;7.40;98.30;;;;;;5079397;28;19924;-70
2022/03/20 10:49:37;;;;;;;;;;;7.60;98.40;;;;;;5083109;28;20436;-71
2022/03/20 10:52:04;;;;;;;;;;;7.80;98.20;;;;;;5084640;28;19936;-70
2022/03/20 10:54:43;;;;;;;;;;;7.80;97.50;;;;;;5088856;28;19974;-70
2022/03/20 10:57:11;;;;;;;;;;;7.10;98.40;;;;;;5080718;28;19932;-70
2022/03/20 10:59:39;;;;;;;;;;;7.50;98.50;;;;;;5083214;28;20398;-70
2022/03/20 11:02:08;;;;;;;;;;;7.80;97.80;;;;;;5085296;28;19932;-71
2022/03/20 11:04:35;;;;;;;;;;;8.00;97.20;;;;;;5082943;28;19931;-69
2022/03/20 11:07:07;;;;;;;;;;;8.20;96.30;;;;;;5080034;28;19946;-69
2022/03/20 11:09:34;;;;;;;;;;;8.20;95.70;;;;;;5080706;28;19924;-70
2022/03/20 11:12:05;;;;;;;;;;;8.50;95.90;;;;;;5080123;28;19932;-72
2022/03/20 11:14:34;;;;;;;;;;;8.50;94.80;;;;;;5078818;28;20343;-68
2022/03/20 11:17:01;;;;;;;;;;;8.00;94.30;;;;;;5080186;28;19930;-69
2022/03/20 11:19:29;;;;;;;;;;;8.00;95.50;;;;;;5074759;28;20376;-73
2022/03/20 11:22:00;;;;;;;;;;;8.20;94.80;;;;;;5072025;28;19924;-71
2022/03/20 11:24:27;;;;;;;;;;;8.40;94.80;;;;;;5079469;28;19959;-72
2022/03/20 11:26:54;;;;;;;;;;;8.90;93.60;;;;;;5083004;28;20015;-71
2022/03/20 11:29:23;;;;;;;;;;;9.00;92.70;;;;;;5079656;28;19931;-72
2022/03/20 11:31:50;;;;;;;;;;;8.90;91.50;;;;;;5076782;28;19924;-72
2022/03/20 11:34:17;;;;;;;;;;;9.00;92.70;;;;;;5080139;28;19931;-71
2022/03/20 11:36:58;;;;;;;;;;;9.10;91.00;;;;;;5075876;28;19936;-70
2022/03/20 11:39:25;;;;;;;;;;;9.20;90.70;;;;;;5079940;28;19931;-70
2022/03/20 11:42:15;;;;;;;;;;;9.40;90.30;;;;;;5079137;28;19970;-71
2022/03/20 11:44:54;;;;;;;;;;;9.40;90.30;;;;;;5076049;28;20003;-71
2022/03/20 11:47:27;;;;;;;;;;;9.40;88.20;;;;;;5081643;28;20339;-71
2022/03/20 11:50:07;;;;;;;;;;;9.30;88.60;;;;;;5088968;28;19928;-69
2022/03/20 11:52:44;;;;;;;;;;;9.30;89.00;;;;;;5078186;28;20063;-71
2022/03/20 11:55:24;;;;;;;;;;;9.40;89.90;;;;;;5077946;28;19951;-70
2022/03/20 11:57:51;;;;;;;;;;;9.20;90.00;;;;;;5072132;28;19949;-70
2022/03/20 12:00:23;;;;;;;;;;;9.30;88.00;;;;;;5081449;28;19924;-73
2022/03/20 12:02:51;;;;;;;;;;;9.40;85.70;;;;;;5080919;28;20288;-71
2022/03/20 12:05:22;;;;;;;;;;;9.20;84.30;;;;;;5080414;28;19928;-70
2022/03/20 12:07:55;;;;;;;;;;;9.40;87.70;;;;;;5083802;28;19935;-70
2022/03/20 12:10:23;;;;;;;;;;;9.30;86.20;;;;;;5079192;28;20037;-70
2022/03/20 12:13:00;;;;;;;;;;;9.30;87.60;;;;;;5076385;28;20001;-70
2022/03/20 12:15:30;;;;;;;;;;;9.40;86.10;;;;;;5082254;28;19986;-70
2022/03/20 12:18:01;;;;;;;;;;;9.40;83.80;;;;;;5075375;28;19931;-70
2022/03/20 12:20:49;;;;;;;;;;;9.60;83.00;;;;;;5080629;28;20016;-70
2022/03/20 12:23:31;;;;;;;;;;;9.80;82.30;;;;;;5075283;28;19928;-70
2022/03/20 12:25:58;;;;;;;;;;;10.00;80.40;;;;;;5079712;28;19932;-70
2022/03/20 12:28:28;;;;;;;;;;;9.80;78.70;;;;;;5073637;28;20385;-69
2022/03/20 12:30:56;;;;;;;;;;;9.80;77.90;;;;;;5076865;28;19924;-69
2022/03/20 12:33:24;;;;;;;;;;;10.00;77.50;;;;;;5084815;28;20010;-70
2022/03/20 12:35:51;;;;;;;;;;;9.90;74.90;;;;;;5088450;28;19935;-70
2022/03/20 12:38:40;;;;;;;;;;;9.60;71.70;;;;;;5087542;28;19931;-70
2022/03/20 12:41:14;;;;;;;;;;;9.50;73.80;;;;;;5078918;28;19924;-68
2022/03/20 12:43:42;;;;;;;;;;;9.80;74.40;;;;;;5085050;28;20488;-70
2022/03/20 12:46:11;;;;;;;;;;;10.00;71.70;;;;;;5089321;28;20386;-71
2022/03/20 12:48:37;;;;;;;;;;;9.90;72.10;;;;;;5085946;28;19924;-70
2022/03/20 12:51:09;;;;;;;;;;;9.70;72.50;;;;;;5092871;28;19924;-70
2022/03/20 12:53:38;;;;;;;;;;;9.60;73.30;;;;;;5087684;28;19928;-69
2022/03/20 12:56:07;;;;;;;;;;;9.60;72.40;;;;;;5088644;28;19924;-70
2022/03/20 12:58:33;;;;;;;;;;;9.70;72.50;;;;;;5077561;28;20558;-70
2022/03/20 13:01:00;;;;;;;;;;;9.80;73.30;;;;;;5092205;28;20022;-71
2022/03/20 13:03:30;;;;;;;;;;;9.80;73.40;;;;;;5084148;28;19931;-68
2022/03/20 13:05:57;;;;;;;;;;;9.80;73.70;;;;;;5089225;28;19931;-68
2022/03/20 13:08:25;;;;;;;;;;;9.70;74.70;;;;;;5089376;28;19924;-69
2022/03/20 13:10:53;;;;;;;;;;;9.40;74.40;;;;;;5092267;28;19978;-70
2022/03/20 13:13:21;;;;;;;;;;;9.40;75.30;;;;;;5081508;28;20023;-71
2022/03/20 13:15:48;;;;;;;;;;;9.20;74.90;;;;;;5090101;28;19932;-71
2022/03/20 13:18:15;;;;;;;;;;;9.30;74.70;;;;;;5083830;28;20927;-73
2022/03/20 13:20:44;;;;;;;;;;;9.40;74.20;;;;;;5087641;28;20026;-73
2022/03/20 13:23:11;;;;;;;;;;;9.50;73.80;;;;;;5086992;28;20375;-73
2022/03/20 13:25:39;;;;;;;;;;;9.50;73.80;;;;;;5078357;28;20267;-74
2022/03/20 13:28:06;;;;;;;;;;;9.30;72.70;;;;;;5085827;28;20173;-73
2022/03/20 13:30:34;;;;;;;;;;;9.00;73.10;;;;;;5081334;28;19930;-73
2022/03/20 13:33:01;;;;;;;;;;;9.00;73.90;;;;;;5090542;28;20191;-72
2022/03/20 13:35:28;;;;;;;;;;;8.90;75.10;;;;;;5075650;28;20355;-74
2022/03/20 13:37:56;;;;;;;;;;;8.80;76.60;;;;;;5085913;28;20235;-70
2022/03/20 13:40:24;;;;;;;;;;;8.70;76.60;;;;;;5076003;28;19936;-71
2022/03/20 13:42:51;;;;;;;;;;;8.40;76.00;;;;;;5081083;28;19997;-71
2022/03/20 13:45:18;;;;;;;;;;;8.20;75.80;;;;;;5084766;28;20019;-70
2022/03/20 13:47:45;;;;;;;;;;;8.30;78.40;;;;;;5076989;28;19924;-70
2022/03/20 13:50:14;;;;;;;;;;;8.50;81.00;;;;;;5088680;28;19932;-71
2022/03/20 13:52:42;;;;;;;;;;;8.40;80.70;;;;;;5086013;28;20007;-71
2022/03/20 13:55:12;;;;;;;;;;;8.50;81.30;;;;;;5078574;28;19931;-70
2022/03/20 13:57:49;;;;;;;;;;;8.60;77.70;;;;;;5081761;28;20395;-72
2022/03/20 14:00:16;;;;;;;;;;;8.70;76.80;;;;;;5084249;28;19970;-70
2022/03/20 14:02:44;;;;;;;;;;;8.90;76.30;;;;;;5083842;28;20018;-72
2022/03/20 14:05:12;;;;;;;;;;;9.00;76.40;;;;;;5080132;28;19928;-70
2022/03/20 14:07:39;;;;;;;;;;;9.20;74.20;;;;;;5084219;28;20320;-70
2022/03/20 14:10:20;;;;;;;;;;;9.30;73.10;;;;;;5082013;28;19931;-71
2022/03/20 14:12:52;;;;;;;;;;;9.30;75.10;;;;;;5086962;28;20312;-70
2022/03/20 14:15:19;;;;;;;;;;;9.30;72.10;;;;;;5093185;28;19924;-69
2022/03/20 14:17:47;;;;;;;;;;;9.70;72.60;;;;;;5092918;28;19928;-69
2022/03/20 14:20:15;;;;;;;;;;;9.60;70.00;;;;;;5082461;28;20303;-70
2022/03/20 14:22:46;;;;;;;;;;;9.40;70.50;;;;;;5093783;28;20022;-69
2022/03/20 14:25:27;;;;;;;;;;;9.50;71.70;;;;;;5092404;28;20006;-69
2022/03/20 14:28:00;;;;;;;;;;;9.50;70.90;;;;;;5092801;28;20383;-68
2022/03/20 14:41:27;;;;;;;;;;;9.10;73.30;;;;;;5078172;28;21393;-72
2022/03/20 14:44:05;;;;;;;;;;;9.10;73.40;;;;;;5084126;28;19925;-69
2022/03/20 14:46:32;;;;;;;;;;;9.00;74.10;;;;;;5086931;28;19927;-69
2022/03/20 14:48:59;;;;;;;;;;;9.00;74.20;;;;;;5082789;28;19930;-70
2022/03/20 14:51:26;;;;;;;;;;;9.10;74.50;;;;;;5079405;28;19925;-71
2022/03/20 14:53:52;;;;;;;;;;;9.30;75.90;;;;;;5080724;28;19925;-70
2022/03/20 14:56:21;;;;;;;;;;;9.20;75.60;;;;;;5079533;28;19951;-69
2022/03/20 14:58:48;;;;;;;;;;;9.10;75.90;;;;;;5080065;28;19967;-71
2022/03/20 15:01:18;;;;;;;;;;;9.50;75.50;;;;;;5081452;28;19928;-71
2022/03/20 15:03:45;;;;;;;;;;;9.30;75.30;;;;;;5083188;28;19939;-69
2022/03/20 15:06:12;;;;;;;;;;;9.20;75.10;;;;;;5082352;28;19924;-70
2022/03/20 15:11:25;;;;;;;;;;;9.10;76.50;;;;;;5079440;28;19934;-71
2022/03/20 15:13:53;;;;;;;;;;;9.00;75.40;;;;;;5074475;28;19934;-70
2022/03/20 15:16:21;;;;;;;;;;;8.90;76.60;;;;;;5083779;28;19931;-70
2022/03/20 15:18:49;;;;;;;;;;;8.90;75.90;;;;;;5081543;28;19946;-70
2022/03/20 15:21:15;;;;;;;;;;;8.80;75.80;;;;;;5083944;28;19939;-70
2022/03/20 15:23:42;;;;;;;;;;;8.80;76.40;;;;;;5081767;28;19928;-70
2022/03/20 15:26:09;;;;;;;;;;;8.90;75.60;;;;;;5074002;28;19924;-70
2022/03/20 15:28:36;;;;;;;;;;;8.80;74.70;;;;;;5069919;28;19928;-70